createdAt,value
2023-01-04T00:00:14.417Z,2.90
2023-01-04T00:02:42.776Z,3.00
2023-01-04T00:05:13.798Z,2.90
2023-01-04T00:07:42.371Z,2.90
2023-01-04T00:10:10.695Z,2.90
2023-01-04T00:12:38.947Z,2.90
2023-01-04T00:15:08.423Z,3.00
2023-01-04T00:17:36.652Z,3.00
2023-01-04T00:20:05.641Z,3.10
2023-01-04T00:22:36.507Z,3.10
2023-01-04T00:25:05.261Z,3.10
2023-01-04T00:27:33.458Z,3.00
2023-01-04T00:30:01.575Z,3.00
2023-01-04T00:32:29.705Z,2.90
2023-01-04T00:34:57.864Z,3.00
2023-01-04T00:37:25.931Z,3.30
2023-01-04T00:39:55.480Z,3.20
2023-01-04T00:42:23.761Z,3.20
2023-01-04T00:44:52.589Z,3.20
2023-01-04T00:47:20.704Z,3.20
2023-01-04T00:49:48.957Z,3.30
2023-01-04T00:52:17.196Z,3.30
2023-01-04T00:54:45.344Z,3.30
2023-01-04T00:57:14.900Z,3.10
2023-01-04T00:59:43.082Z,3.00
2023-01-04T01:02:11.370Z,2.90
2023-01-04T01:04:39.729Z,2.80
2023-01-04T01:07:07.867Z,2.80
2023-01-04T01:09:35.978Z,2.70
2023-01-04T01:12:04.124Z,2.60
2023-01-04T01:14:33.645Z,2.70
2023-01-04T01:17:01.795Z,2.80
2023-01-04T01:19:30.649Z,2.80
2023-01-04T01:21:59.747Z,2.90
2023-01-04T01:24:28.818Z,2.90
2023-01-04T01:26:57.094Z,3.00
2023-01-04T01:29:25.834Z,3.00
2023-01-04T01:31:55.573Z,3.00
2023-01-04T01:34:23.786Z,2.90
2023-01-04T01:36:51.953Z,3.00
2023-01-04T01:39:20.482Z,3.00
2023-01-04T01:41:48.956Z,3.00
2023-01-04T01:44:58.086Z,3.00
2023-01-04T01:47:34.301Z,3.00
2023-01-04T01:50:03.137Z,3.10
2023-01-04T01:52:34.918Z,2.90
2023-01-04T01:55:07.497Z,2.90
2023-01-04T01:57:39.339Z,2.80
2023-01-04T02:00:10.987Z,2.90
2023-01-04T02:02:44.357Z,2.80
2023-01-04T02:05:12.752Z,2.90
2023-01-04T02:07:40.997Z,2.80
2023-01-04T02:10:10.176Z,2.80
2023-01-04T02:12:38.392Z,2.80
2023-01-04T02:15:07.668Z,2.80
2023-01-04T02:17:43.567Z,2.70
2023-01-04T02:20:38.832Z,2.70
2023-01-04T02:23:40.533Z,2.70
2023-01-04T02:26:46.998Z,2.70
2023-01-04T02:29:44.800Z,2.80
2023-01-04T02:32:25.829Z,2.80
2023-01-04T02:35:01.228Z,2.80
2023-01-04T02:37:36.504Z,2.80
2023-01-04T02:40:11.426Z,2.70
2023-01-04T02:43:04.740Z,2.50
2023-01-04T02:45:39.994Z,2.40
2023-01-04T02:48:30.153Z,2.50
2023-01-04T02:50:59.659Z,2.50
2023-01-04T02:53:31.171Z,2.60
2023-01-04T02:56:09.690Z,2.60
2023-01-04T02:58:49.851Z,2.60
2023-01-04T03:01:44.377Z,2.50
2023-01-04T03:04:41.008Z,2.50
2023-01-04T03:07:18.449Z,2.50
2023-01-04T03:09:50.548Z,2.50
2023-01-04T03:12:33.822Z,2.60
2023-01-04T03:15:07.873Z,2.50
2023-01-04T03:17:43.741Z,2.60
2023-01-04T03:20:18.803Z,2.50
2023-01-04T03:23:14.234Z,2.50
2023-01-04T03:26:09.113Z,2.60
2023-01-04T03:28:57.611Z,2.70
2023-01-04T03:31:49.516Z,2.70
2023-01-04T03:34:36.495Z,2.60
2023-01-04T03:37:17.641Z,2.60
2023-01-04T03:40:26.224Z,2.60
2023-01-04T03:43:22.518Z,2.60
2023-01-04T03:46:16.181Z,2.60
2023-01-04T03:48:52.153Z,2.60
2023-01-04T03:51:35.050Z,2.60
2023-01-04T03:54:14.737Z,2.60
2023-01-04T03:56:51.710Z,2.60
2023-01-04T03:59:29.924Z,2.60
2023-01-04T04:02:10.956Z,2.80
2023-01-04T04:04:58.590Z,2.80
2023-01-04T04:07:45.175Z,2.80
2023-01-04T04:10:24.491Z,2.80
2023-01-04T04:13:09.574Z,2.90
2023-01-04T04:15:37.985Z,3.10
2023-01-04T04:18:06.615Z,3.10
2023-01-04T04:20:36.774Z,3.20
2023-01-04T04:23:09.543Z,3.20
2023-01-04T04:25:47.809Z,3.20
2023-01-04T04:28:23.125Z,3.20
2023-01-04T04:30:53.743Z,3.30
2023-01-04T04:33:22.972Z,3.30
2023-01-04T04:35:55.143Z,3.30
2023-01-04T04:38:23.646Z,3.30
2023-01-04T04:41:10.691Z,3.30
2023-01-04T04:43:41.428Z,3.30
2023-01-04T04:46:12.779Z,3.30
2023-01-04T04:48:44.946Z,3.30
2023-01-04T04:51:13.666Z,3.30
2023-01-04T04:53:45.119Z,3.30
2023-01-04T04:56:17.480Z,3.40
2023-01-04T04:58:45.655Z,3.50
2023-01-04T05:01:16.610Z,3.50
2023-01-04T05:03:47.003Z,3.50
2023-01-04T05:06:17.040Z,3.50
2023-01-04T05:08:46.583Z,3.50
2023-01-04T05:11:39.078Z,3.60
2023-01-04T05:14:07.964Z,3.80
2023-01-04T05:16:39.215Z,3.70
2023-01-04T05:19:16.049Z,3.80
2023-01-04T05:21:48.730Z,4.10
2023-01-04T05:24:20.841Z,4.20
2023-01-04T05:26:50.589Z,4.30
2023-01-04T05:29:36.729Z,4.30
2023-01-04T05:32:13.998Z,4.20
2023-01-04T05:34:43.044Z,4.30
2023-01-04T05:37:12.511Z,4.40
2023-01-04T05:39:43.647Z,4.50
2023-01-04T05:42:30.559Z,4.50
2023-01-04T05:47:45.615Z,4.50
2023-01-04T05:50:17.101Z,4.50
2023-01-04T05:52:46.929Z,4.50
2023-01-04T05:55:18.352Z,4.60
2023-01-04T05:57:49.500Z,4.50
2023-01-04T06:00:26.257Z,4.60
2023-01-04T06:02:57.836Z,4.50
2023-01-04T06:05:28.143Z,4.60
2023-01-04T06:07:57.303Z,4.70
2023-01-04T06:10:33.229Z,4.80
2023-01-04T06:13:17.664Z,4.70
2023-01-04T06:15:49.386Z,4.80
2023-01-04T06:18:17.547Z,4.90
2023-01-04T06:20:48.022Z,5.00
2023-01-04T06:23:20.267Z,5.00
2023-01-04T06:25:48.403Z,5.10
2023-01-04T06:28:19.707Z,5.30
2023-01-04T06:30:51.563Z,5.40
2023-01-04T06:33:22.442Z,5.30
2023-01-04T06:35:59.019Z,5.30
2023-01-04T06:38:30.832Z,5.40
2023-01-04T06:41:01.587Z,5.40
2023-01-04T06:43:33.217Z,5.40
2023-01-04T06:46:04.251Z,5.50
2023-01-04T06:48:36.250Z,5.60
2023-01-04T06:51:06.192Z,5.70
2023-01-04T06:53:35.832Z,5.50
2023-01-04T06:56:07.725Z,5.70
2023-01-04T06:58:38.967Z,5.80
2023-01-04T07:01:09.898Z,5.80
2023-01-04T07:03:40.362Z,5.90
2023-01-04T07:06:11.714Z,5.90
2023-01-04T07:08:45.191Z,6.00
2023-01-04T07:11:14.298Z,6.00
2023-01-04T07:13:44.946Z,6.10
2023-01-04T07:16:15.477Z,6.20
2023-01-04T07:18:47.242Z,6.20
2023-01-04T07:21:16.461Z,6.20
2023-01-04T07:23:48.163Z,6.30
2023-01-04T07:26:17.467Z,6.30
2023-01-04T07:29:06.077Z,6.40
2023-01-04T07:31:35.375Z,6.50
2023-01-04T07:34:03.643Z,6.60
2023-01-04T07:36:35.737Z,6.60
2023-01-04T07:39:06.731Z,6.70
2023-01-04T07:41:34.934Z,6.80
2023-01-04T07:44:07.753Z,6.90
2023-01-04T07:46:36.341Z,7.10
2023-01-04T07:49:08.980Z,7.10
2023-01-04T07:51:42.741Z,7.20
2023-01-04T07:54:17.105Z,7.10
2023-01-04T07:56:47.140Z,7.20
2023-01-04T07:59:19.539Z,7.20
2023-01-04T08:01:51.144Z,7.20
2023-01-04T08:04:28.289Z,7.30
2023-01-04T08:07:01.495Z,7.30
2023-01-04T08:09:38.472Z,7.30
2023-01-04T08:12:07.217Z,7.30
2023-01-04T08:14:38.943Z,7.40
2023-01-04T08:17:08.272Z,7.50
2023-01-04T08:19:38.190Z,7.50
2023-01-04T08:22:06.673Z,7.50
2023-01-04T08:24:35.317Z,7.60
2023-01-04T08:27:05.767Z,7.50
2023-01-04T08:29:35.271Z,7.40
2023-01-04T08:32:09.815Z,7.40
2023-01-04T08:34:37.906Z,7.50
2023-01-04T08:37:07.655Z,7.50
2023-01-04T08:39:48.683Z,7.70
2023-01-04T08:42:31.116Z,7.70
2023-01-04T08:45:05.710Z,7.80
2023-01-04T08:47:36.437Z,7.60
2023-01-04T08:50:10.347Z,7.60
2023-01-04T08:52:42.663Z,7.70
2023-01-04T08:57:53.865Z,7.60
2023-01-04T09:00:22.850Z,7.70
2023-01-04T09:03:06.284Z,7.70
2023-01-04T09:05:34.570Z,7.70
2023-01-04T09:08:05.160Z,7.70
2023-01-04T09:10:34.673Z,7.70
2023-01-04T09:13:05.145Z,7.80
2023-01-04T09:15:36.816Z,7.80
2023-01-04T09:18:31.754Z,7.80
2023-01-04T09:21:00.859Z,7.80
2023-01-04T09:23:30.535Z,7.90
2023-01-04T09:26:04.310Z,7.90
2023-01-04T09:28:37.237Z,7.90
2023-01-04T09:31:13.383Z,7.90
2023-01-04T09:36:43.822Z,8.00
2023-01-04T09:39:20.470Z,8.10
2023-01-04T09:42:00.323Z,8.10
2023-01-04T09:47:43.038Z,8.40
2023-01-04T09:50:34.980Z,8.50
2023-01-04T09:53:11.477Z,8.40
2023-01-04T09:55:46.534Z,8.50
2023-01-04T09:58:31.474Z,8.40
2023-01-04T10:01:07.011Z,8.30
2023-01-04T10:03:39.242Z,8.40
2023-01-04T10:06:24.969Z,8.60
2023-01-04T10:08:57.587Z,8.70
2023-01-04T10:11:35.136Z,8.70
2023-01-04T10:14:43.399Z,8.80
2023-01-04T10:17:55.233Z,8.80
2023-01-04T10:23:37.513Z,9.30
2023-01-04T10:26:12.740Z,9.30
2023-01-04T10:28:56.528Z,9.30
2023-01-04T10:31:39.740Z,9.40
2023-01-04T10:34:19.168Z,9.50
2023-01-04T10:36:48.651Z,9.40
2023-01-04T10:39:28.593Z,9.50
2023-01-04T10:42:10.845Z,9.50
2023-01-04T10:44:46.811Z,9.60
2023-01-04T10:47:23.055Z,9.60
2023-01-04T10:49:57.853Z,9.70
2023-01-04T10:52:30.658Z,9.80
2023-01-04T10:55:05.731Z,9.90
2023-01-04T10:57:40.658Z,10.10
2023-01-04T11:00:15.269Z,10.30
2023-01-04T11:02:51.650Z,10.50
2023-01-04T11:05:26.445Z,10.50
2023-01-04T11:07:59.226Z,10.50
2023-01-04T11:10:32.324Z,10.50
2023-01-04T11:13:00.492Z,10.60
2023-01-04T11:15:29.720Z,10.80
2023-01-04T11:17:58.781Z,10.80
2023-01-04T11:20:27.809Z,10.80
2023-01-04T11:23:02.210Z,10.90
2023-01-04T11:25:38.874Z,10.90
2023-01-04T11:28:16.021Z,11.00
2023-01-04T11:30:54.708Z,11.00
2023-01-04T11:33:25.072Z,11.00
2023-01-04T11:35:55.805Z,11.00
2023-01-04T11:38:25.436Z,11.20
2023-01-04T11:41:01.264Z,11.30
2023-01-04T11:43:31.604Z,11.30
2023-01-04T11:46:05.664Z,11.30
2023-01-04T11:48:40.369Z,11.40
2023-01-04T11:51:18.731Z,11.50
2023-01-04T11:53:47.700Z,11.60
2023-01-04T11:56:20.356Z,11.60
2023-01-04T11:59:22.879Z,11.60
2023-01-04T12:02:11.260Z,11.30
2023-01-04T12:04:39.567Z,11.30
2023-01-04T12:07:15.610Z,11.30
2023-01-04T12:09:43.763Z,11.30
2023-01-04T12:12:16.065Z,11.40
2023-01-04T12:14:49.272Z,11.50
2023-01-04T12:17:23.336Z,11.50
2023-01-04T12:19:54.571Z,11.40
2023-01-04T12:22:27.169Z,11.50
2023-01-04T12:25:00.563Z,11.30
2023-01-04T12:27:31.561Z,11.30
2023-01-04T12:30:01.281Z,11.30
2023-01-04T12:32:41.604Z,11.30
2023-01-04T12:36:01.226Z,11.40
2023-01-04T12:39:02.506Z,11.50
2023-01-04T12:42:22.135Z,11.50
2023-01-04T12:45:22.498Z,11.60
2023-01-04T12:48:10.532Z,11.50
2023-01-04T12:51:37.393Z,11.50
2023-01-04T12:54:32.334Z,11.50
2023-01-04T12:57:29.496Z,11.30
2023-01-04T13:00:02.469Z,11.40
2023-01-04T13:02:35.029Z,11.40
2023-01-04T13:05:54.799Z,11.20
2023-01-04T13:08:15.514Z,11.20
2023-01-04T13:10:49.350Z,11.30
2023-01-04T13:13:33.359Z,11.30
2023-01-04T13:16:19.398Z,11.40
2023-01-04T13:18:52.729Z,11.30
2023-01-04T13:21:29.961Z,11.40
2023-01-04T13:24:01.844Z,11.50
2023-01-04T13:26:43.319Z,11.50
2023-01-04T13:29:22.463Z,11.40
2023-01-04T13:31:55.116Z,11.50
2023-01-04T13:34:29.388Z,11.50
2023-01-04T13:37:06.056Z,11.30
2023-01-04T13:39:35.721Z,11.20
2023-01-04T13:42:06.392Z,11.20
2023-01-04T13:45:19.649Z,11.20
2023-01-04T13:47:52.070Z,11.40
2023-01-04T13:50:40.232Z,11.30
2023-01-04T13:53:21.657Z,11.30
2023-01-04T13:55:54.853Z,11.30
2023-01-04T13:58:26.850Z,11.30
2023-01-04T14:00:59.656Z,11.20
2023-01-04T14:03:36.316Z,11.20
2023-01-04T14:06:26.220Z,11.10
2023-01-04T14:09:06.550Z,11.20
2023-01-04T14:14:55.888Z,11.20
2023-01-04T14:17:32.576Z,11.10
2023-01-04T14:20:03.068Z,11.10
2023-01-04T14:22:52.310Z,11.30
2023-01-04T14:25:49.241Z,11.40
2023-01-04T14:28:48.662Z,11.30
2023-01-04T14:31:32.317Z,11.30
2023-01-04T14:34:07.158Z,11.30
2023-01-04T14:36:37.252Z,11.30
2023-01-04T14:39:26.980Z,11.50
2023-01-04T14:41:59.958Z,11.50
2023-01-04T14:44:32.023Z,11.40
2023-01-04T14:47:05.027Z,11.30
2023-01-04T14:49:34.165Z,11.30
2023-01-04T14:52:04.469Z,11.40
2023-01-04T14:54:35.871Z,11.50
2023-01-04T14:57:08.770Z,11.30
2023-01-04T14:59:37.703Z,11.30
2023-01-04T15:02:07.112Z,11.40
2023-01-04T15:04:36.355Z,11.30
2023-01-04T15:07:05.052Z,11.30
2023-01-04T15:09:36.653Z,11.20
2023-01-04T15:12:06.778Z,11.30
2023-01-04T15:14:36.477Z,11.30
2023-01-04T15:17:05.556Z,11.30
2023-01-04T15:19:38.099Z,11.30
2023-01-04T15:22:07.940Z,11.30
2023-01-04T15:24:39.307Z,11.20
2023-01-04T15:27:08.317Z,11.20
2023-01-04T15:29:36.820Z,11.10
2023-01-04T15:32:07.776Z,11.20
2023-01-04T15:34:40.653Z,11.00
2023-01-04T15:37:15.969Z,11.10
2023-01-04T15:39:53.184Z,11.00
2023-01-04T15:42:43.500Z,10.90
2023-01-04T15:45:13.409Z,11.00
2023-01-04T15:47:42.638Z,10.90
2023-01-04T15:50:12.426Z,10.80
2023-01-04T15:52:41.367Z,10.90
2023-01-04T15:55:12.811Z,11.00
2023-01-04T15:57:44.344Z,11.10
2023-01-04T16:00:15.815Z,11.00
2023-01-04T16:02:45.636Z,11.00
2023-01-04T16:05:16.641Z,11.10
2023-01-04T16:07:46.164Z,11.20
2023-01-04T16:10:17.386Z,11.20
2023-01-04T16:12:51.422Z,11.00
2023-01-04T16:15:26.424Z,10.90
2023-01-04T16:17:56.466Z,10.80
2023-01-04T16:20:25.572Z,10.90
2023-01-04T16:22:54.734Z,11.00
2023-01-04T16:25:25.161Z,10.90
2023-01-04T16:27:55.076Z,10.90
2023-01-04T16:30:29.724Z,10.90
2023-01-04T16:32:59.412Z,10.90
2023-01-04T16:35:28.765Z,10.90
2023-01-04T16:37:58.658Z,11.00
2023-01-04T16:40:29.539Z,10.90
2023-01-04T16:42:58.672Z,11.00
2023-01-04T16:45:28.299Z,10.90
2023-01-04T16:47:57.892Z,10.90
2023-01-04T16:50:27.275Z,10.90
2023-01-04T16:52:56.786Z,11.00
2023-01-04T16:55:26.371Z,11.00
2023-01-04T16:57:56.828Z,11.00
2023-01-04T17:00:26.959Z,11.10
2023-01-04T17:02:55.906Z,11.10
2023-01-04T17:05:25.548Z,11.10
2023-01-04T17:07:55.320Z,11.10
2023-01-04T17:10:29.433Z,11.10
2023-01-04T17:13:00.847Z,11.20
2023-01-04T17:15:45.561Z,11.20
2023-01-04T17:18:15.473Z,11.30
2023-01-04T17:20:44.778Z,11.20
2023-01-04T17:23:13.965Z,11.20
2023-01-04T17:25:43.201Z,11.10
2023-01-04T17:28:14.095Z,11.20
2023-01-04T17:30:43.935Z,11.10
2023-01-04T17:33:13.735Z,11.20
2023-01-04T17:35:42.817Z,11.30
2023-01-04T17:38:11.602Z,11.30
2023-01-04T17:40:41.113Z,11.30
2023-01-04T17:43:10.293Z,11.30
2023-01-04T17:45:41.602Z,11.30
2023-01-04T17:48:11.238Z,11.30
2023-01-04T17:50:41.140Z,11.20
2023-01-04T17:53:10.483Z,11.30
2023-01-04T17:55:39.707Z,11.40
2023-01-04T17:58:11.695Z,11.40
2023-01-04T18:00:43.410Z,11.40
2023-01-04T18:03:12.372Z,11.50
2023-01-04T18:05:51.728Z,11.50
2023-01-04T18:08:22.529Z,11.50
2023-01-04T18:11:08.534Z,11.60
2023-01-04T18:16:24.293Z,11.80
2023-01-04T18:18:54.999Z,11.90
2023-01-04T18:21:29.128Z,11.80
2023-01-04T18:29:39.649Z,11.80
2023-01-04T18:32:11.114Z,11.60
2023-01-04T18:34:40.164Z,11.40
2023-01-04T18:37:09.373Z,11.40
2023-01-04T18:39:38.889Z,11.30
2023-01-04T18:42:08.158Z,11.20
2023-01-04T18:44:43.880Z,11.10
2023-01-04T18:47:16.866Z,11.20
2023-01-04T18:49:45.704Z,11.20
2023-01-04T18:52:15.177Z,11.20
2023-01-04T18:54:45.534Z,11.30
2023-01-04T18:57:14.925Z,11.30
2023-01-04T18:59:44.457Z,11.30
2023-01-04T19:02:20.462Z,11.30
2023-01-04T19:04:50.289Z,11.30
2023-01-04T19:07:19.616Z,11.30
2023-01-04T19:09:48.881Z,11.30
2023-01-04T19:12:18.087Z,11.30
2023-01-04T19:14:47.694Z,11.30
2023-01-04T19:17:17.577Z,11.30
2023-01-04T19:19:48.759Z,11.40
2023-01-04T19:22:17.994Z,11.40
2023-01-04T19:24:47.011Z,11.40
2023-01-04T19:27:16.835Z,11.30
2023-01-04T19:29:46.752Z,11.30
2023-01-04T19:32:19.717Z,11.30
2023-01-04T19:34:50.956Z,11.30
2023-01-04T19:37:20.386Z,11.40
2023-01-04T19:39:49.812Z,11.40
2023-01-04T19:42:18.347Z,11.40
2023-01-04T19:44:47.141Z,11.40
2023-01-04T19:47:16.916Z,11.30
2023-01-04T19:49:46.230Z,11.40
2023-01-04T19:52:16.995Z,11.40
2023-01-04T19:54:45.879Z,11.50
2023-01-04T19:57:15.004Z,11.50
2023-01-04T19:59:44.890Z,11.60
2023-01-04T20:02:14.665Z,11.60
2023-01-04T20:04:44.066Z,11.50
2023-01-04T20:07:13.674Z,11.60
2023-01-04T20:09:45.079Z,11.60
2023-01-04T20:12:14.457Z,11.60
2023-01-04T20:14:43.843Z,11.50
2023-01-04T20:17:13.011Z,11.60
2023-01-04T20:19:42.105Z,11.60
2023-01-04T20:22:11.857Z,11.60
2023-01-04T20:24:41.273Z,11.60
2023-01-04T20:27:12.064Z,11.50
2023-01-04T20:29:41.829Z,11.50
2023-01-04T20:32:11.041Z,11.60
2023-01-04T20:34:40.970Z,11.60
2023-01-04T20:37:10.048Z,11.60
2023-01-04T20:39:39.427Z,11.50
2023-01-04T20:42:25.912Z,11.60
2023-01-04T20:44:57.259Z,11.60
2023-01-04T20:47:26.969Z,11.60
2023-01-04T20:49:55.973Z,11.60
2023-01-04T20:52:25.675Z,11.50
2023-01-04T20:54:55.138Z,11.60
2023-01-04T20:57:24.206Z,11.60
2023-01-04T20:59:53.654Z,11.50
2023-01-04T21:02:34.264Z,11.50
2023-01-04T21:05:10.552Z,11.50
2023-01-04T21:07:41.440Z,11.40
2023-01-04T21:10:12.265Z,11.40
2023-01-04T21:12:43.293Z,11.40
2023-01-04T21:15:21.990Z,11.40
2023-01-04T21:17:52.346Z,11.30
2023-01-04T21:20:24.488Z,11.40
2023-01-04T21:22:53.928Z,11.30
2023-01-04T21:25:23.451Z,11.40
2023-01-04T21:27:53.172Z,11.40
2023-01-04T21:30:23.258Z,11.50
2023-01-04T21:32:56.021Z,11.50
2023-01-04T21:35:30.385Z,11.50
2023-01-04T21:37:59.926Z,11.50
2023-01-04T21:40:28.858Z,11.50
2023-01-04T21:42:58.795Z,11.50
2023-01-04T21:45:28.773Z,11.50
2023-01-04T21:47:59.868Z,11.50
2023-01-04T21:50:31.260Z,11.50
2023-01-04T21:53:00.503Z,11.50
2023-01-04T21:55:34.535Z,11.50
2023-01-04T21:58:03.939Z,11.50
2023-01-04T22:00:33.318Z,11.50
2023-01-04T22:03:04.202Z,11.50
2023-01-04T22:05:33.448Z,11.50
2023-01-04T22:08:03.011Z,11.50
2023-01-04T22:10:32.845Z,11.50
2023-01-04T22:13:01.947Z,11.50
2023-01-04T22:15:31.570Z,11.50
2023-01-04T22:18:00.787Z,11.50
2023-01-04T22:20:32.118Z,11.50
2023-01-04T22:23:01.090Z,11.50
2023-01-04T22:25:29.528Z,11.50
2023-01-04T22:27:59.410Z,11.50
2023-01-04T22:30:29.152Z,11.60
2023-01-04T22:32:58.431Z,11.60
2023-01-04T22:35:26.599Z,11.60
2023-01-04T22:37:56.089Z,11.50
2023-01-04T22:40:24.273Z,11.60
2023-01-04T22:42:52.391Z,11.60
2023-01-04T22:45:20.587Z,11.60
2023-01-04T22:47:48.894Z,11.50
2023-01-04T22:50:17.326Z,11.50
2023-01-04T22:52:50.811Z,11.50
2023-01-04T22:55:21.023Z,11.50
2023-01-04T22:57:49.850Z,11.50
2023-01-04T23:00:18.120Z,11.50
2023-01-04T23:02:46.272Z,11.50
2023-01-04T23:05:14.483Z,11.50
2023-01-04T23:07:42.635Z,11.50
2023-01-04T23:10:10.967Z,11.50
2023-01-04T23:12:40.447Z,11.50
2023-01-04T23:15:10.033Z,11.60
2023-01-04T23:17:38.183Z,11.60
2023-01-04T23:20:10.414Z,11.60
2023-01-04T23:22:38.799Z,11.60
2023-01-04T23:25:07.973Z,11.70
2023-01-04T23:27:36.173Z,11.70
2023-01-04T23:30:06.522Z,11.80
2023-01-04T23:32:35.052Z,11.80
2023-01-04T23:35:03.618Z,11.80
2023-01-04T23:37:33.435Z,11.80
2023-01-04T23:40:01.599Z,11.80
2023-01-04T23:42:29.793Z,11.80
2023-01-04T23:44:57.911Z,11.80
2023-01-04T23:47:27.413Z,11.80
2023-01-04T23:49:55.563Z,11.80
2023-01-04T23:52:23.655Z,11.80
2023-01-04T23:54:51.764Z,11.80
2023-01-04T23:57:19.918Z,11.80
2023-01-04T23:59:48.019Z,11.80
